Time;durP1;ratioP1;P1;durP2;ratioP2;P2;SDS_P1;SDS_P2;PMS_P1;PMS_P2;Temp;Humidity;BMP_temperature;BMP_pressure;BME280_temperature;BME280_humidity;BME280_pressure;Samples;Min_cycle;Max_cycle;Signal;HPM_P1;HPM_P2
2023/04/06 00:02:22;;;;;;;14.97;13.37;;;2.00;96.40;;;1.15;66.84;101361.09;5096013;28;20587;-72
2023/04/06 00:04:54;;;;;;;15.77;13.10;;;1.90;96.60;;;1.16;66.83;101368.06;5096071;28;20641;-73
2023/04/06 00:07:28;;;;;;;17.53;13.87;;;1.90;96.80;;;1.08;67.04;101364.13;5096228;28;20224;-73
2023/04/06 00:10:00;;;;;;;15.13;13.10;;;1.90;96.80;;;1.07;67.64;101360.66;5096311;28;20598;-73
2023/04/06 00:12:31;;;;;;;14.47;12.97;;;1.80;97.10;;;1.01;67.63;101355.72;5096170;28;20195;-73
2023/04/06 00:15:05;;;;;;;15.37;12.40;;;1.80;97.20;;;1.17;66.97;101353.06;5096123;28;20193;-72
2023/04/06 00:17:37;;;;;;;14.90;12.33;;;2.00;96.90;;;1.13;66.36;101352.38;5096079;28;20285;-73
2023/04/06 00:20:11;;;;;;;12.20;10.90;;;1.90;96.60;;;1.10;66.63;101357.00;5096067;28;20276;-73
2023/04/06 00:22:45;;;;;;;15.40;12.27;;;1.90;96.30;;;1.08;67.24;101349.19;5095913;28;20235;-73
2023/04/06 00:25:16;;;;;;;12.80;11.40;;;1.90;96.70;;;1.00;66.90;101356.66;5095972;28;20189;-73
2023/04/06 00:27:48;;;;;;;15.10;11.73;;;1.80;96.70;;;0.93;67.19;101348.22;5095915;28;20229;-73
2023/04/06 00:30:20;;;;;;;12.97;11.57;;;1.70;96.80;;;0.89;67.65;101351.13;5095872;28;20197;-73
2023/04/06 00:32:52;;;;;;;12.67;11.37;;;1.70;97.10;;;0.84;68.13;101353.16;5096211;28;20193;-73
2023/04/06 00:35:24;;;;;;;12.77;11.00;;;1.60;97.50;;;0.87;67.92;101345.94;5095793;28;20193;-73
2023/04/06 00:37:58;;;;;;;13.37;11.97;;;1.70;97.60;;;0.79;68.48;101347.28;5095642;28;20226;-72
2023/04/06 00:40:32;;;;;;;13.23;10.93;;;1.60;97.30;;;0.88;68.50;101345.00;5095859;28;20200;-72
2023/04/06 00:43:04;;;;;;;14.60;10.73;;;1.70;97.80;;;0.95;67.20;101342.88;5095531;28;20217;-72
2023/04/06 00:45:36;;;;;;;13.47;11.80;;;1.80;96.80;;;0.91;66.88;101341.34;5095322;28;20637;-72
2023/04/06 00:48:08;;;;;;;13.50;10.70;;;1.70;96.80;;;0.98;67.06;101345.34;5095312;28;20185;-72
2023/04/06 00:50:41;;;;;;;15.30;12.47;;;1.80;96.80;;;0.96;67.28;101344.56;5095642;28;20246;-72
2023/04/06 00:53:14;;;;;;;13.70;11.37;;;1.70;96.80;;;0.92;67.53;101337.78;5095206;28;20196;-72
2023/04/06 00:55:46;;;;;;;13.40;11.23;;;1.70;96.80;;;0.82;68.14;101336.59;5095426;28;20204;-72
2023/04/06 00:58:17;;;;;;;13.80;11.47;;;1.60;97.00;;;0.73;68.18;101342.34;5095080;28;20628;-72
2023/04/06 01:00:49;;;;;;;13.40;12.00;;;1.50;97.50;;;0.66;68.74;101338.34;5095962;28;20192;-72
2023/04/06 01:03:21;;;;;;;19.67;11.67;;;1.40;97.70;;;0.55;68.49;101330.19;5094821;28;20263;-72
2023/04/06 01:05:57;;;;;;;12.80;11.57;;;1.30;97.40;;;0.58;68.05;101332.66;5094992;28;20557;-72
2023/04/06 01:08:31;;;;;;;13.23;11.93;;;1.30;97.60;;;0.54;68.96;101331.09;5095071;28;20231;-72
2023/04/06 01:11:04;;;;;;;14.07;12.43;;;1.40;97.70;;;0.44;69.13;101330.75;5095129;28;20189;-72
2023/04/06 01:13:36;;;;;;;13.17;11.60;;;1.30;97.70;;;0.41;69.61;101321.19;5094915;28;20637;-72
2023/04/06 01:16:10;;;;;;;14.70;11.87;;;1.20;98.00;;;0.37;70.27;101324.97;5095532;28;20225;-72
2023/04/06 01:18:43;;;;;;;14.43;11.97;;;1.20;98.10;;;0.36;69.95;101320.63;5096187;28;20192;-72
2023/04/06 01:21:16;;;;;;;15.00;12.97;;;1.20;98.10;;;0.40;68.79;101314.25;5096288;28;20189;-71
2023/04/06 01:23:50;;;;;;;15.20;11.83;;;1.30;98.10;;;0.38;70.31;101310.84;5095142;28;20712;-71
2023/04/06 01:26:21;;;;;;;14.07;12.53;;;1.20;98.10;;;0.38;70.11;101310.84;5094272;28;20239;-72
2023/04/06 01:28:53;;;;;;;14.43;12.43;;;1.10;98.10;;;0.33;70.63;101312.03;5094403;28;20598;-72
2023/04/06 01:31:27;;;;;;;14.53;12.60;;;1.10;98.40;;;0.32;70.13;101316.44;5094516;28;20192;-72
2023/04/06 01:33:59;;;;;;;15.07;12.67;;;1.20;98.20;;;0.35;69.93;101316.28;5094315;28;20648;-72
2023/04/06 01:36:31;;;;;;;14.40;12.67;;;1.20;98.40;;;0.39;70.39;101312.53;5094096;28;20727;-72
2023/04/06 01:39:04;;;;;;;14.07;12.57;;;1.20;98.40;;;0.37;69.82;101314.44;5094813;28;20189;-72
2023/04/06 01:41:36;;;;;;;15.80;13.07;;;1.20;98.20;;;0.36;70.11;101317.13;5094445;28;20188;-72
2023/04/06 01:44:10;;;;;;;15.20;13.43;;;1.20;98.30;;;0.45;70.10;101308.72;5094139;28;20637;-72
2023/04/06 01:46:41;;;;;;;18.30;13.53;;;1.30;98.30;;;0.41;68.88;101313.31;5094248;28;20319;-72
2023/04/06 01:49:13;;;;;;;15.53;13.97;;;1.30;97.90;;;0.43;69.78;101316.72;5094286;28;20185;-72
2023/04/06 01:51:45;;;;;;;15.20;13.00;;;1.30;98.10;;;0.31;69.47;101314.72;5093922;28;20649;-72
2023/04/06 01:54:18;;;;;;;15.60;13.73;;;1.20;98.10;;;0.32;69.31;101313.81;5094294;28;20189;-72
2023/04/06 01:56:52;;;;;;;15.23;13.37;;;1.20;98.20;;;0.33;70.14;101309.38;5094121;28;20307;-72
2023/04/06 01:59:24;;;;;;;17.27;13.67;;;1.10;98.20;;;0.26;70.02;101305.38;5093970;28;20216;-72
2023/04/06 02:01:56;;;;;;;16.23;13.87;;;1.10;98.20;;;0.18;70.23;101303.16;5094612;28;20193;-72
2023/04/06 02:04:28;;;;;;;16.07;14.37;;;1.10;98.40;;;0.14;70.95;101309.50;5094109;28;20272;-72
2023/04/06 02:07:00;;;;;;;17.13;13.83;;;1.00;98.40;;;0.14;70.24;101306.03;5093943;28;20224;-72
2023/04/06 02:09:33;;;;;;;15.80;13.83;;;1.00;98.40;;;0.16;70.42;101299.75;5094015;28;20212;-72
2023/04/06 02:12:05;;;;;;;15.50;13.87;;;1.00;98.40;;;0.11;69.04;101301.75;5093957;28;20195;-72
2023/04/06 02:14:37;;;;;;;15.60;14.07;;;1.00;98.10;;;0.16;69.28;101304.16;5093993;28;20193;-72
2023/04/06 02:17:10;;;;;;;17.10;15.30;;;1.10;98.10;;;0.10;70.71;101304.50;5093014;28;20623;-72
2023/04/06 02:19:41;;;;;;;15.60;14.00;;;0.90;98.40;;;0.07;70.38;101302.84;5093591;28;20189;-72
2023/04/06 02:22:14;;;;;;;17.77;14.23;;;0.90;98.20;;;0.05;69.23;101302.09;5093802;28;20196;-72
2023/04/06 02:24:47;;;;;;;15.80;13.00;;;0.90;98.20;;;0.07;69.03;101305.47;5093830;28;20192;-72
2023/04/06 02:27:19;;;;;;;15.07;13.50;;;0.90;98.30;;;-0.02;69.56;101291.03;5093743;28;20229;-72
2023/04/06 02:29:52;;;;;;;15.23;13.60;;;0.90;97.80;;;0.06;69.70;101298.53;5093796;28;20192;-72
2023/04/06 02:32:23;;;;;;;14.83;13.27;;;0.90;98.30;;;0.23;68.99;101301.13;5093371;28;20576;-72
2023/04/06 02:34:55;;;;;;;16.27;14.00;;;1.20;97.80;;;0.12;69.89;101294.72;5094008;28;20189;-72
2023/04/06 02:37:27;;;;;;;17.10;14.23;;;1.00;97.60;;;-0.05;69.14;101292.97;5093593;28;20278;-72
2023/04/06 02:40:00;;;;;;;16.80;13.67;;;0.80;97.70;;;0.15;69.44;101287.50;5093663;28;20201;-72
2023/04/06 02:42:33;;;;;;;16.23;14.53;;;1.10;98.00;;;-0.07;69.64;101284.31;5093758;28;20224;-72
2023/04/06 02:45:04;;;;;;;15.03;13.40;;;0.80;97.70;;;-0.12;70.28;101292.44;5093639;28;20188;-72
2023/04/06 02:47:37;;;;;;;16.63;14.07;;;0.80;98.30;;;-0.12;69.73;101292.44;5093554;28;20239;-72
2023/04/06 02:50:11;;;;;;;17.10;15.30;;;0.80;98.50;;;-0.14;70.15;101288.19;5093850;28;20195;-72
2023/04/06 02:52:43;;;;;;;15.63;14.07;;;0.70;98.10;;;-0.19;70.97;101284.94;5093537;28;20198;-72
2023/04/06 02:55:16;;;;;;;17.57;13.77;;;0.70;98.30;;;-0.23;70.07;101286.00;5093622;28;20201;-72
2023/04/06 02:57:48;;;;;;;16.50;14.03;;;0.60;98.40;;;-0.16;70.04;101285.63;5093313;28;20237;-72
2023/04/06 03:00:22;;;;;;;15.30;12.97;;;0.70;98.40;;;-0.17;70.51;101283.91;5093220;28;20634;-72
2023/04/06 03:02:53;;;;;;;14.67;13.03;;;0.70;98.20;;;-0.14;68.94;101290.81;5093403;28;20228;-72
2023/04/06 03:05:25;;;;;;;15.30;13.50;;;0.70;98.00;;;-0.21;69.90;101284.16;5093691;28;20200;-72
2023/04/06 03:07:57;;;;;;;14.93;13.33;;;0.60;98.30;;;-0.30;69.89;101282.84;5093409;28;20232;-72
2023/04/06 03:10:30;;;;;;;16.23;13.30;;;0.60;98.40;;;-0.25;69.80;101285.25;5093400;28;20193;-72
2023/04/06 03:13:02;;;;;;;17.00;13.20;;;0.70;98.10;;;-0.28;68.88;101283.63;5093266;28;20189;-72
2023/04/06 03:15:34;;;;;;;17.47;15.07;;;0.60;98.10;;;-0.30;70.07;101280.22;5093274;28;20197;-72
2023/04/06 03:18:06;;;;;;;18.63;15.27;;;0.60;98.30;;;-0.19;70.03;101284.94;5092999;28;20200;-72
2023/04/06 03:20:38;;;;;;;16.00;14.27;;;0.70;98.10;;;-0.30;69.68;101285.47;5093291;28;20193;-72
2023/04/06 03:23:10;;;;;;;17.27;15.10;;;0.70;97.90;;;-0.42;71.09;101282.63;5094066;28;20213;-72
2023/04/06 03:25:43;;;;;;;15.37;13.77;;;0.50;98.40;;;-0.34;70.14;101283.09;5093171;28;20196;-73
2023/04/06 03:28:15;;;;;;;17.27;14.43;;;0.50;98.40;;;-0.41;70.44;101292.22;5096341;28;20200;-72
2023/04/06 03:30:47;;;;;;;16.80;13.40;;;0.50;98.50;;;-0.48;70.60;101280.31;5096994;28;20193;-72
2023/04/06 03:33:19;;;;;;;14.97;13.30;;;0.40;98.40;;;-0.53;70.96;101286.66;5097000;28;20185;-72
2023/04/06 03:35:51;;;;;;;15.83;13.20;;;0.40;98.70;;;-0.57;70.37;101290.34;5096804;28;20196;-72
2023/04/06 03:38:23;;;;;;;16.07;12.70;;;0.30;98.60;;;-0.58;71.23;101291.28;5096805;28;20272;-71
2023/04/06 03:40:56;;;;;;;13.20;11.80;;;0.30;98.90;;;-0.59;71.66;101289.59;5096782;28;20193;-72
2023/04/06 03:43:28;;;;;;;14.53;11.70;;;0.30;98.90;;;-0.63;71.79;101290.66;5096618;28;20215;-72
2023/04/06 03:46:00;;;;;;;13.97;11.23;;;0.30;98.80;;;-0.61;70.85;101286.16;5096610;28;20236;-72
2023/04/06 03:48:32;;;;;;;21.23;11.60;;;0.30;98.90;;;-0.55;70.84;101288.47;5096600;28;20189;-73
2023/04/06 03:51:04;;;;;;;14.07;11.67;;;0.40;99.00;;;-0.56;71.46;101283.31;5096380;28;20200;-73
2023/04/06 03:53:36;;;;;;;13.70;12.30;;;0.30;98.90;;;-0.59;71.08;101286.97;5096548;28;20188;-73
2023/04/06 03:56:11;;;;;;;12.67;11.47;;;0.30;98.70;;;-0.51;71.20;101289.19;5096394;28;20224;-73
2023/04/06 03:58:44;;;;;;;14.07;11.80;;;0.40;98.50;;;-0.47;69.94;101282.00;5096209;28;20261;-73
2023/04/06 04:01:16;;;;;;;15.13;11.97;;;0.50;98.50;;;-0.50;69.92;101288.25;5096397;28;20189;-72
2023/04/06 04:03:48;;;;;;;13.40;12.00;;;0.50;98.40;;;-0.57;69.59;101292.13;5096965;28;20208;-72
2023/04/06 04:06:22;;;;;;;13.10;11.00;;;0.40;98.40;;;-0.65;70.13;101292.50;5096271;28;20229;-72
2023/04/06 04:08:54;;;;;;;14.63;12.30;;;0.30;98.20;;;-0.64;71.68;101291.59;5095998;28;20654;-72
2023/04/06 04:11:27;;;;;;;13.77;11.90;;;0.30;98.60;;;-0.66;70.28;101293.44;5096271;28;20189;-73
2023/04/06 04:13:59;;;;;;;14.00;10.87;;;0.30;98.50;;;-0.58;69.83;101291.28;5096206;28;20208;-73
2023/04/06 04:16:31;;;;;;;13.03;11.63;;;0.40;98.50;;;-0.59;69.92;101294.84;5096056;28;20229;-73
2023/04/06 04:19:03;;;;;;;12.43;10.47;;;0.40;98.30;;;-0.64;70.58;101290.72;5096078;28;20204;-73
2023/04/06 04:21:42;;;;;;;13.10;11.40;;;0.40;98.20;;;-0.73;70.95;101294.69;5095997;28;20268;-73
2023/04/06 04:24:14;;;;;;;12.43;11.13;;;0.20;99.00;;;-0.68;70.17;101295.28;5095767;28;20212;-73
2023/04/06 04:26:47;;;;;;;13.00;10.27;;;0.30;98.70;;;-0.77;71.72;101295.75;5095867;28;20224;-73
2023/04/06 04:29:21;;;;;;;11.77;10.33;;;0.20;98.70;;;-0.73;71.57;101284.16;5095880;28;20193;-73
2023/04/06 04:31:53;;;;;;;12.03;10.73;;;0.30;99.00;;;-0.85;71.56;101292.63;5095872;28;20199;-73
2023/04/06 04:34:25;;;;;;;12.17;9.80;;;0.10;98.80;;;-0.86;71.26;101290.94;5095766;28;20233;-73
2023/04/06 04:36:57;;;;;;;11.50;10.30;;;0.10;99.10;;;-0.83;72.88;101288.16;5095691;28;20221;-73
2023/04/06 04:39:31;;;;;;;10.50;9.40;;;0.10;99.40;;;-0.83;71.75;101285.53;5094762;28;20665;-73
2023/04/06 04:42:05;;;;;;;11.03;9.90;;;0.10;99.00;;;-0.85;70.28;101292.63;5095658;28;20200;-73
2023/04/06 04:44:37;;;;;;;13.23;10.20;;;0.10;98.60;;;-0.90;71.77;101294.66;5095524;28;20216;-73
2023/04/06 04:47:08;;;;;;;10.83;9.60;;;0.10;99.00;;;-0.87;70.88;101294.50;5095673;28;20236;-73
2023/04/06 04:49:40;;;;;;;13.00;10.13;;;0.10;98.80;;;-0.91;71.53;101297.34;5095530;28;20306;-72
2023/04/06 04:52:12;;;;;;;12.70;9.90;;;0.10;98.90;;;-0.88;71.74;101294.56;5096031;28;20204;-72
2023/04/06 04:54:46;;;;;;;12.50;9.43;;;0.10;98.90;;;-0.95;70.67;101293.16;5095106;28;20192;-72
2023/04/06 04:57:20;;;;;;;11.47;10.27;;;0.00;98.60;;;-1.00;71.62;101296.00;5095404;28;20225;-72
2023/04/06 04:59:51;;;;;;;13.80;11.53;;;0.00;99.10;;;-1.06;71.70;101294.50;5095297;28;20200;-72
2023/04/06 05:02:23;;;;;;;13.70;11.63;;;-0.10;99.40;;;-1.01;71.58;101294.31;5094964;28;20197;-72
2023/04/06 05:04:55;;;;;;;12.03;10.57;;;0.00;99.60;;;-1.04;71.62;101291.81;5095112;28;20266;-72
2023/04/06 05:07:27;;;;;;;13.37;11.30;;;-0.10;99.30;;;-1.03;72.76;101296.16;5094692;28;20591;-72
2023/04/06 05:09:59;;;;;;;16.40;11.10;;;-0.10;99.30;;;-1.05;71.67;101293.59;5094776;28;20664;-72
2023/04/06 05:12:32;;;;;;;11.50;10.30;;;-0.10;99.50;;;-1.08;72.72;101299.00;5095074;28;20189;-72
2023/04/06 05:15:05;;;;;;;16.30;11.50;;;-0.20;99.40;;;-1.06;71.84;101293.66;5094960;28;20267;-72
2023/04/06 05:17:37;;;;;;;19.87;12.87;;;-0.10;99.50;;;-1.02;73.33;101295.22;5094876;28;20228;-72
2023/04/06 05:20:12;;;;;;;22.37;13.53;;;0.00;99.60;;;-1.02;72.26;101295.22;5094913;28;20284;-72
2023/04/06 05:22:44;;;;;;;32.27;16.23;;;0.00;99.40;;;-1.04;72.27;101299.72;5094642;28;20607;-72
2023/04/06 05:25:16;;;;;;;27.17;16.07;;;-0.10;99.30;;;-1.00;71.99;101297.78;5094422;28;20744;-73
2023/04/06 05:27:49;;;;;;;32.67;17.67;;;-0.10;99.50;;;-1.02;73.28;101297.84;5094358;28;20704;-73
2023/04/06 05:30:22;;;;;;;31.47;16.77;;;0.00;99.60;;;-1.00;72.63;101296.00;5094701;28;20189;-73
2023/04/06 05:32:55;;;;;;;27.63;16.80;;;0.00;99.70;;;-0.94;72.59;101298.34;5094659;28;20196;-72
2023/04/06 05:35:27;;;;;;;29.40;16.00;;;0.10;99.70;;;-0.97;73.13;101287.97;5094666;28;20185;-72
2023/04/06 05:37:59;;;;;;;28.33;14.60;;;0.10;99.80;;;-0.91;73.50;101295.56;5094533;28;20224;-73
2023/04/06 05:40:31;;;;;;;27.30;14.60;;;0.10;99.80;;;-0.82;73.39;101300.38;5094524;28;20193;-73
2023/04/06 05:43:04;;;;;;;25.27;14.87;;;0.20;99.80;;;-0.76;73.26;101289.56;5094495;28;20189;-73
2023/04/06 05:45:36;;;;;;;30.13;16.03;;;0.30;99.70;;;-0.67;72.99;101293.50;5094302;28;20219;-73
2023/04/06 05:48:08;;;;;;;26.83;15.57;;;0.40;99.50;;;-0.63;72.43;101281.91;5094323;28;20188;-73
2023/04/06 05:50:40;;;;;;;29.67;16.53;;;0.40;99.40;;;-0.57;71.19;101285.09;5094192;28;20193;-73
2023/04/06 05:53:12;;;;;;;37.23;19.33;;;0.50;99.10;;;-0.53;72.32;101286.66;5094315;28;20212;-73
2023/04/06 05:55:44;;;;;;;33.37;18.10;;;0.50;99.20;;;-0.45;71.26;101290.69;5094357;28;20189;-73
2023/04/06 05:58:17;;;;;;;38.77;19.10;;;0.60;99.00;;;-0.39;71.13;101290.34;5094033;28;20584;-73
2023/04/06 06:00:50;;;;;;;40.07;20.10;;;0.70;98.90;;;-0.36;72.27;101282.31;5094455;28;20193;-73
2023/04/06 06:03:22;;;;;;;31.93;16.80;;;0.70;99.00;;;-0.31;71.74;101290.84;5094457;28;20200;-73
2023/04/06 06:05:54;;;;;;;34.83;17.70;;;0.80;98.90;;;-0.27;71.62;101284.47;5094022;28;20209;-73
2023/04/06 06:08:26;;;;;;;26.13;15.50;;;0.80;98.80;;;-0.23;71.52;101281.59;5093976;28;20192;-73
2023/04/06 06:10:58;;;;;;;23.97;13.87;;;0.90;98.90;;;-0.17;72.38;101285.72;5094137;28;20189;-73
2023/04/06 06:13:31;;;;;;;27.27;14.57;;;0.90;99.00;;;-0.13;71.67;101282.84;5094257;28;20218;-73
2023/04/06 06:16:04;;;;;;;22.90;13.40;;;1.00;99.10;;;-0.07;71.86;101282.50;5094069;28;20220;-72
2023/04/06 06:18:37;;;;;;;29.70;14.70;;;1.00;99.00;;;0.00;72.41;101278.63;5094356;28;20591;-73
2023/04/06 06:21:09;;;;;;;29.93;15.07;;;1.10;98.90;;;0.07;71.71;101289.69;5094403;28;20196;-72
2023/04/06 06:23:41;;;;;;;25.00;13.83;;;1.20;98.90;;;0.12;72.33;101276.28;5094030;28;20656;-72
2023/04/06 06:26:12;;;;;;;21.80;12.10;;;1.20;99.00;;;0.17;72.76;101275.09;5093722;28;20232;-73
2023/04/06 06:28:45;;;;;;;19.63;11.00;;;1.30;99.10;;;0.20;72.59;101288.13;5093861;28;20193;-73
2023/04/06 06:31:20;;;;;;;21.60;11.60;;;1.30;99.00;;;0.24;72.23;101287.00;5093861;28;20193;-72
2023/04/06 06:33:52;;;;;;;18.53;11.00;;;1.30;98.90;;;0.28;71.26;101288.56;5093725;28;20287;-73
2023/04/06 06:36:25;;;;;;;19.77;11.20;;;1.40;98.60;;;0.33;72.03;101291.81;5093326;28;20220;-73
2023/04/06 06:38:57;;;;;;;16.13;10.83;;;1.40;98.70;;;0.40;72.34;101295.81;5093407;28;20193;-73
2023/04/06 06:41:29;;;;;;;19.57;11.80;;;1.50;98.90;;;0.46;71.49;101298.13;5093449;28;20660;-73
2023/04/06 06:44:02;;;;;;;21.47;12.40;;;1.50;98.70;;;0.51;71.51;101298.69;5093358;28;20186;-73
2023/04/06 06:46:36;;;;;;;26.00;12.93;;;1.60;98.80;;;0.58;71.89;101295.75;5093568;28;20602;-73
2023/04/06 06:49:08;;;;;;;36.00;15.47;;;1.70;98.70;;;0.64;71.28;101290.16;5093894;28;20271;-73
2023/04/06 06:51:39;;;;;;;39.73;15.60;;;1.70;98.70;;;0.68;71.80;101291.69;5093593;28;20207;-73
2023/04/06 06:54:12;;;;;;;33.93;14.83;;;1.80;98.70;;;0.71;71.58;101291.50;5093278;28;20601;-73
2023/04/06 06:56:43;;;;;;;30.20;15.50;;;1.80;98.60;;;0.75;72.00;101286.00;5093517;28;20220;-73
2023/04/06 06:59:17;;;;;;;31.43;14.67;;;1.90;98.90;;;0.82;72.42;101294.41;5093086;28;20216;-73
2023/04/06 07:01:49;;;;;;;22.97;13.33;;;1.90;99.10;;;0.88;72.99;101283.53;5094397;28;20248;-73
2023/04/06 07:04:21;;;;;;;18.50;12.57;;;2.00;99.20;;;0.94;72.39;101291.94;5097549;28;20189;-73
2023/04/06 07:06:53;;;;;;;17.73;11.43;;;2.00;99.10;;;0.99;72.81;101289.06;5097351;28;20601;-73
2023/04/06 07:09:26;;;;;;;21.67;13.87;;;2.10;99.10;;;1.06;73.17;101287.78;5097467;28;20207;-73
2023/04/06 07:11:58;;;;;;;23.13;12.27;;;2.20;99.40;;;1.14;73.14;101282.03;5097394;28;20196;-73
2023/04/06 07:14:31;;;;;;;21.03;13.50;;;2.30;99.40;;;1.24;73.37;101285.84;5097340;28;20197;-73
2023/04/06 07:17:03;;;;;;;14.27;10.67;;;2.40;99.30;;;1.32;71.61;101283.63;5097256;28;20220;-73
2023/04/06 07:19:35;;;;;;;14.23;9.97;;;2.50;98.70;;;1.43;71.99;101281.25;5097307;28;20192;-73
2023/04/06 07:22:07;;;;;;;14.13;10.43;;;2.50;98.70;;;1.57;70.75;101283.06;5097228;28;20201;-73
2023/04/06 07:24:39;;;;;;;15.17;9.80;;;2.70;98.30;;;1.62;70.59;101283.63;5097087;28;20199;-73
2023/04/06 07:27:11;;;;;;;14.03;9.67;;;2.70;98.10;;;1.76;70.35;101284.53;5097052;28;20225;-73
2023/04/06 07:29:44;;;;;;;13.30;9.70;;;2.90;98.10;;;1.81;70.17;101285.13;5097071;28;20197;-72
2023/04/06 07:32:16;;;;;;;11.73;8.67;;;3.00;97.80;;;1.88;69.04;101277.69;5096803;28;20192;-72
2023/04/06 07:34:48;;;;;;;12.43;9.27;;;3.00;97.50;;;2.00;68.67;101288.34;5096641;28;20633;-73
2023/04/06 07:37:20;;;;;;;12.23;8.67;;;3.10;97.10;;;2.09;68.53;101286.94;5096549;28;20578;-73
2023/04/06 07:39:52;;;;;;;13.23;9.67;;;3.20;97.10;;;2.22;69.17;101287.91;5096921;28;20185;-72
2023/04/06 07:42:23;;;;;;;11.77;9.40;;;3.30;97.40;;;2.30;69.92;101285.63;5096876;28;20185;-73
2023/04/06 07:44:56;;;;;;;13.27;8.90;;;3.40;97.70;;;2.43;68.43;101286.56;5096743;28;20193;-73
2023/04/06 07:47:28;;;;;;;12.07;9.23;;;3.50;97.00;;;2.53;68.83;101281.56;5096684;28;20315;-73
2023/04/06 07:50:00;;;;;;;10.73;8.83;;;3.60;97.10;;;2.67;69.10;101286.00;5096408;28;20584;-73
2023/04/06 07:52:32;;;;;;;11.67;8.50;;;3.80;97.00;;;2.81;67.47;101280.69;5096713;28;20185;-73
2023/04/06 07:55:08;;;;;;;11.70;8.27;;;3.90;96.40;;;2.91;66.72;101276.50;5096679;28;20191;-72
2023/04/06 07:57:40;;;;;;;8.70;7.80;;;4.00;95.80;;;3.00;65.25;101266.16;5096411;28;20223;-73
2023/04/06 08:00:16;;;;;;;10.67;7.40;;;4.10;95.30;;;3.22;63.49;101270.06;5096699;28;20280;-73
2023/04/06 08:02:48;;;;;;;9.47;8.10;;;4.30;94.70;;;3.25;64.67;101268.06;5098011;28;20184;-72
2023/04/06 08:05:20;;;;;;;8.23;6.83;;;4.40;94.90;;;3.38;64.54;101268.97;5097064;28;20213;-73
2023/04/06 08:07:52;;;;;;;10.70;7.47;;;4.50;94.80;;;3.50;64.15;101270.78;5095831;28;20232;-73
2023/04/06 08:10:24;;;;;;;9.70;6.93;;;4.60;95.00;;;3.64;62.34;101266.34;5094809;28;20556;-73
2023/04/06 08:12:56;;;;;;;11.57;7.03;;;4.70;94.20;;;3.77;62.09;101272.50;5095589;28;20189;-73
2023/04/06 08:15:29;;;;;;;9.03;7.70;;;4.80;93.60;;;3.94;60.46;101273.06;5095230;28;20204;-75
2023/04/06 08:18:01;;;;;;;12.17;8.53;;;5.00;93.00;;;4.02;61.18;101267.25;5096100;28;20228;-73
2023/04/06 08:20:34;;;;;;;9.50;7.10;;;5.00;93.10;;;4.14;60.40;101268.22;5096191;28;20285;-73
2023/04/06 08:23:09;;;;;;;11.40;6.57;;;5.20;92.40;;;4.31;57.55;101263.44;5096237;28;20193;-73
2023/04/06 08:25:41;;;;;;;6.90;6.20;;;5.40;91.40;;;4.47;57.04;101263.19;5096072;28;20212;-74
2023/04/06 08:28:14;;;;;;;9.57;6.90;;;5.50;91.10;;;4.48;58.36;101265.75;5096454;28;20193;-73
2023/04/06 08:30:48;;;;;;;14.03;6.67;;;5.50;91.60;;;4.63;58.69;101274.38;5096125;28;20562;-73
2023/04/06 08:33:20;;;;;;;9.57;6.80;;;5.70;91.80;;;4.71;55.77;101265.91;5095652;28;20535;-73
2023/04/06 08:35:53;;;;;;;8.63;6.60;;;5.80;90.00;;;4.85;55.84;101266.59;5095934;28;20192;-74
2023/04/06 08:38:26;;;;;;;8.30;6.60;;;5.80;89.70;;;4.91;56.69;101268.81;5096097;28;20185;-74
2023/04/06 08:40:58;;;;;;;8.50;6.60;;;5.90;90.20;;;5.02;56.35;101262.72;5095497;28;20193;-74
2023/04/06 08:43:33;;;;;;;12.50;6.80;;;6.00;90.20;;;5.09;54.71;101256.00;5095858;28;20197;-73
2023/04/06 08:46:06;;;;;;;8.83;6.53;;;6.10;88.50;;;5.21;54.88;101260.41;5095654;28;20236;-74
2023/04/06 08:48:39;;;;;;;9.60;7.20;;;6.20;89.00;;;5.31;54.50;101261.41;5095833;28;20199;-73
2023/04/06 08:51:11;;;;;;;12.20;7.27;;;6.30;87.80;;;5.39;53.16;101263.50;5095426;28;20641;-73
2023/04/06 08:53:44;;;;;;;7.50;6.50;;;6.40;85.90;;;5.41;54.15;101253.63;5095463;28;20254;-73
2023/04/06 08:56:15;;;;;;;10.47;6.77;;;6.40;86.80;;;5.51;54.39;101258.09;5095654;28;20232;-74
2023/04/06 08:58:48;;;;;;;8.60;6.50;;;6.50;87.50;;;5.62;54.91;101255.50;5095307;28;20216;-74
2023/04/06 09:01:25;;;;;;;9.47;6.33;;;6.60;87.90;;;5.79;53.22;101251.53;5095099;28;20614;-73
2023/04/06 09:04:04;;;;;;;7.93;6.37;;;6.70;86.30;;;5.85;54.07;101260.88;5095333;28;20271;-74
2023/04/06 09:06:42;;;;;;;7.70;6.57;;;6.80;86.00;;;5.97;52.65;101262.63;5095350;28;20232;-73
2023/04/06 09:09:15;;;;;;;10.17;7.13;;;6.90;84.90;;;6.08;52.72;101259.97;5094880;28;20664;-73
2023/04/06 09:11:48;;;;;;;8.40;6.60;;;7.10;84.70;;;6.24;52.62;101262.28;5095157;28;20188;-73
2023/04/06 09:14:34;;;;;;;8.23;6.60;;;7.20;84.60;;;6.26;52.45;101266.53;5094782;28;20649;-74
2023/04/06 09:17:07;;;;;;;7.57;6.47;;;7.20;85.30;;;6.49;51.31;101262.91;5095241;28;20220;-72
2023/04/06 09:19:51;;;;;;;9.07;7.10;;;7.40;82.90;;;6.50;52.17;101255.78;5094929;28;20204;-74
2023/04/06 09:22:24;;;;;;;8.33;6.80;;;7.40;84.70;;;6.55;52.68;101251.78;5094900;28;20193;-73
2023/04/06 09:24:57;;;;;;;9.90;6.90;;;7.50;85.00;;;6.69;53.24;101260.47;5094457;28;20192;-74
2023/04/06 09:27:36;;;;;;;9.60;6.57;;;7.60;85.30;;;6.72;53.00;101257.56;5094415;28;20232;-74
2023/04/06 09:30:13;;;;;;;10.43;6.63;;;7.70;85.20;;;6.82;51.98;101250.53;5094761;28;20197;-74
2023/04/06 09:32:55;;;;;;;7.87;6.43;;;7.80;83.60;;;6.93;53.09;101255.81;5094777;28;20219;-74
2023/04/06 09:35:29;;;;;;;7.80;6.63;;;7.90;85.70;;;7.10;50.74;101242.84;5094705;28;20189;-74
2023/04/06 09:38:13;;;;;;;9.37;7.17;;;8.00;83.00;;;7.27;51.08;101246.78;5094517;28;20228;-74
2023/04/06 09:40:52;;;;;;;7.73;6.93;;;8.20;82.10;;;7.32;52.20;101241.94;5094931;28;20188;-74
2023/04/06 09:43:32;;;;;;;7.87;6.30;;;8.20;83.00;;;7.49;51.69;101237.84;5094610;28;20535;-74
2023/04/06 09:46:07;;;;;;;9.03;6.73;;;8.40;83.40;;;7.56;51.29;101241.69;5094390;28;20232;-74
2023/04/06 09:48:40;;;;;;;7.67;6.87;;;8.50;82.10;;;7.64;50.86;101242.72;5094490;28;20195;-74
2023/04/06 09:51:16;;;;;;;9.77;7.23;;;8.50;81.90;;;7.73;50.85;101237.59;5094415;28;20211;-74
2023/04/06 09:53:53;;;;;;;7.80;6.40;;;8.60;81.10;;;7.88;49.31;101236.28;5094408;28;20188;-74
2023/04/06 09:56:46;;;;;;;10.50;6.77;;;8.80;78.60;;;8.02;49.69;101234.13;5093957;28;20603;-74
2023/04/06 09:59:41;;;;;;;8.07;6.83;;;8.80;80.50;;;8.19;49.60;101235.34;5093766;28;20220;-74
2023/04/06 10:02:23;;;;;;;11.17;7.20;;;9.00;79.80;;;8.26;47.51;101238.31;5094232;28;20238;-74
2023/04/06 10:05:06;;;;;;;8.97;6.73;;;9.10;76.30;;;8.38;49.00;101227.47;5094247;28;20185;-73
2023/04/06 10:07:42;;;;;;;9.93;6.80;;;9.20;76.60;;;8.47;49.04;101221.31;5093677;28;20643;-74
2023/04/06 10:10:33;;;;;;;10.57;6.67;;;9.30;77.10;;;8.57;48.17;101219.53;5093879;28;20224;-74
2023/04/06 10:13:08;;;;;;;10.20;6.73;;;9.40;75.70;;;8.65;48.51;101218.84;5094198;28;20203;-74
2023/04/06 10:15:44;;;;;;;8.80;6.97;;;9.50;76.30;;;8.75;48.82;101218.88;5094194;28;20212;-74
2023/04/06 10:18:17;;;;;;;10.00;7.20;;;9.60;77.50;;;8.91;44.67;101205.81;5094116;28;20213;-74
2023/04/06 10:21:01;;;;;;;10.47;6.77;;;9.70;70.40;;;9.04;46.03;101209.09;5093662;28;20536;-74
2023/04/06 10:23:40;;;;;;;7.67;6.80;;;9.80;74.10;;;9.16;46.24;101214.16;5093896;28;20207;-73
2023/04/06 10:26:20;;;;;;;7.33;6.57;;;10.00;72.40;;;9.27;45.64;101207.84;5093827;28;20232;-74
2023/04/06 10:28:54;;;;;;;8.83;7.03;;;10.10;70.30;;;9.35;46.81;101215.97;5093523;28;20192;-74
2023/04/06 10:31:29;;;;;;;8.67;6.87;;;10.20;72.40;;;9.48;46.32;101218.38;5093481;28;20638;-73
2023/04/06 10:34:05;;;;;;;9.57;7.60;;;10.30;71.30;;;9.60;44.33;101206.53;5093811;28;20254;-73
2023/04/06 10:36:39;;;;;;;9.37;7.07;;;10.40;68.50;;;9.62;42.56;101205.41;5093164;28;20224;-74
2023/04/06 10:39:12;;;;;;;10.60;7.90;;;10.40;63.40;;;9.75;42.91;101204.28;5093687;28;20703;-74